AXM6039 WMKJ-WMKK
Flight info
| Callsign | AXM6039 |
|---|---|
| Flight time | 0h 30m |
| Altitude | 20000 |
| Route | SABKA1K SABKA A457 GUPTA GUPTA1G |
| Aircraft | A320/M-SDE3FGHIRWY/LB1 |
Departure
| Time | 2026-05-05 03:35 |
|---|---|
| Airport | Senai International Airport (WMKJ) |
Arrival
| Time | 2026-05-05 04:05 |
|---|---|
| Airport | Kuala Lumpur International Airport (WMKK) |
| Time | Latitude | Longitude | Altitude | Speed | Heading |
|---|---|---|---|---|---|
| 2026-05-05 03:04 | 1.63459 | 103.66814 | 209 ft | 0 kts | 250° |
| 2026-05-05 03:27 | 1.63463 | 103.66825 | 209 ft | 4 kts | 250° |
| 2026-05-05 03:27 | 1.63471 | 103.66847 | 210 ft | 4 kts | 244° |
| 2026-05-05 03:27 | 1.63486 | 103.66865 | 201 ft | 4 kts | 193° |
| 2026-05-05 03:27 | 1.63511 | 103.66863 | 202 ft | 4 kts | 159° |
| 2026-05-05 03:28 | 1.63521 | 103.66859 | 206 ft | 0 kts | 160° |
| 2026-05-05 03:30 | 1.63499 | 103.66867 | 211 ft | 9 kts | 160° |
| 2026-05-05 03:30 | 1.63417 | 103.66897 | 209 ft | 14 kts | 160° |
| 2026-05-05 03:31 | 1.63359 | 103.66928 | 203 ft | 8 kts | 109° |
| 2026-05-05 03:31 | 1.63371 | 103.66973 | 201 ft | 6 kts | 72° |
| 2026-05-05 03:31 | 1.63337 | 103.67022 | 200 ft | 10 kts | 157° |
| 2026-05-05 03:31 | 1.63275 | 103.67045 | 206 ft | 9 kts | 159° |
| 2026-05-05 03:32 | 1.63200 | 103.67071 | 209 ft | 13 kts | 161° |
| 2026-05-05 03:32 | 1.63120 | 103.67098 | 205 ft | 11 kts | 161° |
| 2026-05-05 03:32 | 1.63051 | 103.67125 | 206 ft | 10 kts | 158° |
| 2026-05-05 03:32 | 1.62986 | 103.67149 | 209 ft | 13 kts | 161° |
| 2026-05-05 03:33 | 1.62879 | 103.67187 | 206 ft | 16 kts | 160° |
| 2026-05-05 03:33 | 1.62779 | 103.67224 | 204 ft | 14 kts | 159° |
| 2026-05-05 03:33 | 1.62712 | 103.67279 | 202 ft | 12 kts | 101° |
| 2026-05-05 03:33 | 1.62732 | 103.67353 | 206 ft | 10 kts | 71° |
| 2026-05-05 03:34 | 1.62751 | 103.67407 | 210 ft | 5 kts | 69° |
| 2026-05-05 03:34 | 1.62775 | 103.67411 | 205 ft | 3 kts | 335° |
| 2026-05-05 03:34 | 1.62784 | 103.67407 | 202 ft | 0 kts | 338° |
| 2026-05-05 03:34 | 1.62957 | 103.67342 | 204 ft | 63 kts | 340° |
| 2026-05-05 03:35 | 1.63578 | 103.67116 | 200 ft | 124 kts | 340° |
| 2026-05-05 03:35 | 1.64542 | 103.66764 | 224 ft | 168 kts | 340° |
| 2026-05-05 03:35 | 1.65617 | 103.66371 | 910 ft | 164 kts | 340° |
| 2026-05-05 03:35 | 1.66700 | 103.65971 | 1480 ft | 172 kts | 338° |
| 2026-05-05 03:36 | 1.67798 | 103.65341 | 1764 ft | 194 kts | 308° |
| 2026-05-05 03:36 | 1.68531 | 103.64133 | 2073 ft | 214 kts | 295° |
| 2026-05-05 03:36 | 1.69154 | 103.62710 | 2405 ft | 234 kts | 292° |
| 2026-05-05 03:36 | 1.69805 | 103.61127 | 2787 ft | 258 kts | 292° |
| 2026-05-05 03:37 | 1.70510 | 103.59442 | 3506 ft | 266 kts | 293° |
| 2026-05-05 03:37 | 1.71251 | 103.57731 | 4346 ft | 270 kts | 294° |
| 2026-05-05 03:37 | 1.72022 | 103.56004 | 5166 ft | 274 kts | 294° |
| 2026-05-05 03:37 | 1.72821 | 103.54249 | 5772 ft | 280 kts | 295° |
| 2026-05-05 03:38 | 1.73642 | 103.52477 | 6539 ft | 282 kts | 295° |
| 2026-05-05 03:38 | 1.74474 | 103.50693 | 7323 ft | 285 kts | 295° |
| 2026-05-05 03:38 | 1.75319 | 103.48886 | 8084 ft | 289 kts | 295° |
| 2026-05-05 03:38 | 1.76176 | 103.47058 | 8834 ft | 293 kts | 295° |
| 2026-05-05 03:39 | 1.77041 | 103.45205 | 9586 ft | 296 kts | 294° |
| 2026-05-05 03:39 | 1.77921 | 103.43318 | 10152 ft | 307 kts | 294° |
| 2026-05-05 03:39 | 1.78854 | 103.41312 | 10340 ft | 330 kts | 294° |
| 2026-05-05 03:39 | 1.79852 | 103.39178 | 10697 ft | 345 kts | 295° |
| 2026-05-05 03:40 | 1.80876 | 103.36988 | 11261 ft | 351 kts | 295° |
| 2026-05-05 03:40 | 1.81916 | 103.34761 | 11884 ft | 355 kts | 295° |
| 2026-05-05 03:40 | 1.82967 | 103.32512 | 12540 ft | 358 kts | 295° |
| 2026-05-05 03:40 | 1.84028 | 103.30243 | 13169 ft | 362 kts | 295° |
| 2026-05-05 03:41 | 1.85103 | 103.27951 | 13777 ft | 366 kts | 296° |
| 2026-05-05 03:41 | 1.86210 | 103.25646 | 14298 ft | 370 kts | 296° |
| 2026-05-05 03:41 | 1.87350 | 103.23324 | 14814 ft | 374 kts | 297° |
| 2026-05-05 03:41 | 1.88510 | 103.20986 | 15335 ft | 377 kts | 297° |
| 2026-05-05 03:42 | 1.89682 | 103.18623 | 15848 ft | 381 kts | 297° |
| 2026-05-05 03:42 | 1.90860 | 103.16239 | 16365 ft | 385 kts | 297° |
| 2026-05-05 03:42 | 1.92047 | 103.13829 | 16871 ft | 388 kts | 297° |
| 2026-05-05 03:42 | 1.93242 | 103.11395 | 17382 ft | 392 kts | 297° |
| 2026-05-05 03:43 | 1.94446 | 103.08937 | 17851 ft | 395 kts | 297° |
| 2026-05-05 03:43 | 1.95659 | 103.06460 | 18319 ft | 399 kts | 297° |
| 2026-05-05 03:43 | 1.96883 | 103.03958 | 18747 ft | 402 kts | 297° |
| 2026-05-05 03:43 | 1.98115 | 103.01448 | 19193 ft | 404 kts | 297° |
| 2026-05-05 03:44 | 1.99357 | 102.98923 | 19649 ft | 406 kts | 297° |
| 2026-05-05 03:44 | 2.00604 | 102.96382 | 19852 ft | 407 kts | 297° |
| 2026-05-05 03:44 | 2.01823 | 102.93896 | 19913 ft | 398 kts | 297° |
| 2026-05-05 03:44 | 2.03030 | 102.91431 | 19916 ft | 393 kts | 297° |
| 2026-05-05 03:45 | 2.04226 | 102.88983 | 19917 ft | 391 kts | 297° |
| 2026-05-05 03:45 | 2.05421 | 102.86539 | 19919 ft | 391 kts | 297° |
| 2026-05-05 03:45 | 2.06615 | 102.84097 | 19917 ft | 391 kts | 297° |
| 2026-05-05 03:45 | 2.07809 | 102.81654 | 19917 ft | 391 kts | 297° |
| 2026-05-05 03:46 | 2.09001 | 102.79212 | 19923 ft | 391 kts | 297° |
| 2026-05-05 03:46 | 2.10189 | 102.76772 | 19925 ft | 391 kts | 297° |
| 2026-05-05 03:46 | 2.11379 | 102.74329 | 19919 ft | 391 kts | 297° |
| 2026-05-05 03:46 | 2.12571 | 102.71885 | 19919 ft | 391 kts | 297° |
| 2026-05-05 03:47 | 2.13762 | 102.69443 | 19919 ft | 391 kts | 297° |
| 2026-05-05 03:47 | 2.15008 | 102.67030 | 19925 ft | 390 kts | 303° |
| 2026-05-05 03:47 | 2.16643 | 102.64880 | 19919 ft | 388 kts | 315° |
| 2026-05-05 03:47 | 2.18672 | 102.63121 | 19921 ft | 386 kts | 327° |
| 2026-05-05 03:48 | 2.20989 | 102.61797 | 19918 ft | 384 kts | 335° |
| 2026-05-05 03:48 | 2.23373 | 102.60594 | 19921 ft | 384 kts | 335° |
| 2026-05-05 03:48 | 2.25754 | 102.59380 | 19919 ft | 384 kts | 335° |
| 2026-05-05 03:48 | 2.28135 | 102.58163 | 19920 ft | 384 kts | 335° |
| 2026-05-05 03:49 | 2.30516 | 102.56948 | 19921 ft | 384 kts | 335° |
| 2026-05-05 03:49 | 2.32897 | 102.55734 | 19924 ft | 384 kts | 335° |
| 2026-05-05 03:49 | 2.35279 | 102.54518 | 19926 ft | 384 kts | 335° |
| 2026-05-05 03:49 | 2.37663 | 102.53303 | 19928 ft | 384 kts | 335° |
| 2026-05-05 03:50 | 2.40047 | 102.52088 | 19933 ft | 385 kts | 335° |
| 2026-05-05 03:50 | 2.42429 | 102.50872 | 19933 ft | 384 kts | 335° |
| 2026-05-05 03:50 | 2.44811 | 102.49656 | 19934 ft | 385 kts | 335° |
| 2026-05-05 03:50 | 2.47193 | 102.48440 | 19934 ft | 384 kts | 335° |
| 2026-05-05 03:51 | 2.49569 | 102.47212 | 19933 ft | 385 kts | 332° |
| 2026-05-05 03:51 | 2.51760 | 102.45666 | 19932 ft | 388 kts | 319° |
| 2026-05-05 03:51 | 2.53522 | 102.43612 | 19842 ft | 389 kts | 303° |
| 2026-05-05 03:51 | 2.54619 | 102.41175 | 19141 ft | 384 kts | 284° |
| 2026-05-05 03:52 | 2.54867 | 102.38536 | 18404 ft | 381 kts | 267° |
| 2026-05-05 03:52 | 2.54725 | 102.35909 | 17563 ft | 378 kts | 266° |
| 2026-05-05 03:52 | 2.54587 | 102.33307 | 16788 ft | 374 kts | 267° |
| 2026-05-05 03:52 | 2.54457 | 102.30728 | 16043 ft | 369 kts | 267° |
| 2026-05-05 03:53 | 2.54335 | 102.28182 | 15333 ft | 364 kts | 267° |
| 2026-05-05 03:53 | 2.54218 | 102.25666 | 14640 ft | 360 kts | 267° |
| 2026-05-05 03:53 | 2.54200 | 102.23200 | 14216 ft | 346 kts | 278° |
| 2026-05-05 03:53 | 2.54884 | 102.20964 | 13886 ft | 332 kts | 300° |
| 2026-05-05 03:54 | 2.56295 | 102.19190 | 13331 ft | 324 kts | 317° |
| 2026-05-05 03:54 | 2.57954 | 102.17683 | 12674 ft | 321 kts | 319° |
| 2026-05-05 03:54 | 2.59630 | 102.16220 | 12048 ft | 318 kts | 320° |
| 2026-05-05 03:54 | 2.61295 | 102.14778 | 11440 ft | 315 kts | 320° |
| 2026-05-05 03:55 | 2.62929 | 102.13342 | 10917 ft | 309 kts | 314° |
| 2026-05-05 03:55 | 2.64146 | 102.11618 | 10444 ft | 301 kts | 294° |
| 2026-05-05 03:55 | 2.64673 | 102.09627 | 9903 ft | 296 kts | 272° |
| 2026-05-05 03:55 | 2.64466 | 102.07600 | 9325 ft | 292 kts | 252° |
| 2026-05-05 03:56 | 2.63585 | 102.05814 | 8830 ft | 291 kts | 232° |
| 2026-05-05 03:56 | 2.62138 | 102.04379 | 8452 ft | 289 kts | 218° |
| 2026-05-05 03:56 | 2.60593 | 102.03131 | 8067 ft | 289 kts | 218° |
| 2026-05-05 03:56 | 2.59035 | 102.01876 | 7710 ft | 287 kts | 218° |
| 2026-05-05 03:57 | 2.57485 | 102.00631 | 7340 ft | 285 kts | 218° |
| 2026-05-05 03:57 | 2.55948 | 101.99394 | 7085 ft | 279 kts | 218° |
| 2026-05-05 03:57 | 2.54463 | 101.98200 | 6975 ft | 268 kts | 218° |
| 2026-05-05 03:57 | 2.53070 | 101.97020 | 6852 ft | 258 kts | 226° |
| 2026-05-05 03:58 | 2.52004 | 101.95620 | 6698 ft | 251 kts | 236° |
| 2026-05-05 03:58 | 2.51044 | 101.94183 | 6501 ft | 246 kts | 238° |
| 2026-05-05 03:58 | 2.50356 | 101.92596 | 5956 ft | 254 kts | 258° |
| 2026-05-05 03:58 | 2.50261 | 101.90874 | 5691 ft | 242 kts | 278° |
| 2026-05-05 03:59 | 2.50699 | 101.89305 | 5494 ft | 229 kts | 296° |
| 2026-05-05 03:59 | 2.51550 | 101.88006 | 5274 ft | 221 kts | 314° |
| 2026-05-05 03:59 | 2.52727 | 101.87021 | 5010 ft | 221 kts | 328° |
| 2026-05-05 03:59 | 2.54008 | 101.86165 | 4739 ft | 222 kts | 327° |
| 2026-05-05 04:00 | 2.55295 | 101.85304 | 4431 ft | 223 kts | 327° |
| 2026-05-05 04:00 | 2.56586 | 101.84440 | 4149 ft | 223 kts | 327° |
| 2026-05-05 04:00 | 2.57877 | 101.83575 | 3862 ft | 224 kts | 327° |
| 2026-05-05 04:00 | 2.59173 | 101.82706 | 3569 ft | 224 kts | 327° |
| 2026-05-05 04:01 | 2.60446 | 101.81853 | 3297 ft | 217 kts | 327° |
| 2026-05-05 04:01 | 2.61684 | 101.81022 | 3026 ft | 213 kts | 326° |
| 2026-05-05 04:01 | 2.62898 | 101.80209 | 2749 ft | 206 kts | 326° |
| 2026-05-05 04:01 | 2.64071 | 101.79423 | 2505 ft | 198 kts | 326° |
| 2026-05-05 04:02 | 2.65184 | 101.78676 | 2251 ft | 188 kts | 326° |
| 2026-05-05 04:02 | 2.66242 | 101.77967 | 2003 ft | 179 kts | 326° |
| 2026-05-05 04:02 | 2.67250 | 101.77292 | 1782 ft | 170 kts | 325° |
| 2026-05-05 04:02 | 2.68217 | 101.76644 | 1598 ft | 163 kts | 326° |
| 2026-05-05 04:03 | 2.69128 | 101.76033 | 1369 ft | 154 kts | 326° |
| 2026-05-05 04:03 | 2.70010 | 101.75442 | 1180 ft | 151 kts | 324° |
| 2026-05-05 04:03 | 2.70872 | 101.74864 | 992 ft | 148 kts | 325° |
| 2026-05-05 04:03 | 2.71727 | 101.74290 | 815 ft | 149 kts | 325° |
| 2026-05-05 04:04 | 2.72588 | 101.73713 | 655 ft | 149 kts | 326° |
| 2026-05-05 04:04 | 2.73448 | 101.73138 | 461 ft | 148 kts | 326° |
| 2026-05-05 04:04 | 2.74293 | 101.72571 | 261 ft | 147 kts | 326° |
| 2026-05-05 04:04 | 2.74854 | 101.72198 | 119 ft | 146 kts | 326° |
| 2026-05-05 04:05 | 2.75627 | 101.71674 | 72 ft | 114 kts | 326° |
| 2026-05-05 04:05 | 2.76145 | 101.71329 | 69 ft | 65 kts | 326° |
| 2026-05-05 04:05 | 2.76408 | 101.71151 | 64 ft | 37 kts | 325° |
| 2026-05-05 04:05 | 2.76537 | 101.71003 | 63 ft | 27 kts | 301° |
| 2026-05-05 04:06 | 2.76583 | 101.70902 | 61 ft | 14 kts | 285° |
| 2026-05-05 04:06 | 2.76532 | 101.70843 | 60 ft | 13 kts | 175° |
| 2026-05-05 04:06 | 2.76462 | 101.70886 | 61 ft | 11 kts | 145° |
| 2026-05-05 04:06 | 2.76404 | 101.70926 | 61 ft | 12 kts | 146° |
| 2026-05-05 04:07 | 2.76303 | 101.70991 | 61 ft | 22 kts | 148° |
| 2026-05-05 04:07 | 2.76158 | 101.71038 | 63 ft | 22 kts | 173° |
| 2026-05-05 04:07 | 2.76008 | 101.71080 | 67 ft | 23 kts | 153° |
| 2026-05-05 04:07 | 2.75872 | 101.71170 | 66 ft | 24 kts | 147° |
| 2026-05-05 04:08 | 2.75732 | 101.71263 | 70 ft | 25 kts | 146° |
| 2026-05-05 04:08 | 2.75588 | 101.71361 | 70 ft | 23 kts | 146° |
| 2026-05-05 04:08 | 2.75491 | 101.71411 | 72 ft | 13 kts | 184° |
| 2026-05-05 04:08 | 2.75431 | 101.71355 | 68 ft | 11 kts | 236° |
| 2026-05-05 04:09 | 2.75384 | 101.71283 | 70 ft | 14 kts | 236° |
| 2026-05-05 04:09 | 2.75329 | 101.71202 | 69 ft | 14 kts | 235° |
| 2026-05-05 04:09 | 2.75274 | 101.71123 | 68 ft | 14 kts | 235° |
| 2026-05-05 04:09 | 2.75220 | 101.71044 | 71 ft | 14 kts | 236° |
| 2026-05-05 04:10 | 2.75159 | 101.70954 | 70 ft | 18 kts | 236° |
| 2026-05-05 04:10 | 2.75083 | 101.70841 | 68 ft | 21 kts | 236° |
| 2026-05-05 04:10 | 2.74991 | 101.70707 | 68 ft | 25 kts | 236° |
| 2026-05-05 04:10 | 2.74890 | 101.70560 | 65 ft | 27 kts | 236° |
| 2026-05-05 04:11 | 2.74783 | 101.70401 | 67 ft | 28 kts | 236° |
| 2026-05-05 04:11 | 2.74681 | 101.70248 | 65 ft | 26 kts | 236° |
| 2026-05-05 04:11 | 2.74575 | 101.70092 | 61 ft | 28 kts | 236° |
| 2026-05-05 04:11 | 2.74465 | 101.69932 | 57 ft | 24 kts | 236° |
| 2026-05-05 04:12 | 2.74372 | 101.69796 | 58 ft | 24 kts | 234° |
| 2026-05-05 04:12 | 2.74286 | 101.69670 | 55 ft | 15 kts | 236° |
| 2026-05-05 04:12 | 2.74299 | 101.69610 | 55 ft | 12 kts | 326° |
| 2026-05-05 04:12 | 2.74377 | 101.69557 | 53 ft | 15 kts | 326° |
| 2026-05-05 04:13 | 2.74475 | 101.69492 | 50 ft | 19 kts | 327° |
| 2026-05-05 04:13 | 2.74592 | 101.69413 | 46 ft | 22 kts | 326° |
| 2026-05-05 04:13 | 2.74725 | 101.69324 | 43 ft | 23 kts | 326° |
| 2026-05-05 04:13 | 2.74774 | 101.69264 | 42 ft | 9 kts | 243° |
| 2026-05-05 04:14 | 2.74733 | 101.69210 | 42 ft | 10 kts | 235° |
| 2026-05-05 04:14 | 2.74689 | 101.69146 | 42 ft | 12 kts | 236° |
| 2026-05-05 04:14 | 2.74640 | 101.69074 | 41 ft | 13 kts | 236° |
| 2026-05-05 04:14 | 2.74585 | 101.68991 | 42 ft | 15 kts | 237° |
| 2026-05-05 04:15 | 2.74524 | 101.68900 | 42 ft | 16 kts | 236° |
| 2026-05-05 04:15 | 2.74480 | 101.68838 | 42 ft | 5 kts | 213° |
| 2026-05-05 04:15 | 2.74450 | 101.68852 | 40 ft | 5 kts | 146° |
| 2026-05-05 04:15 | 2.74439 | 101.68860 | 41 ft | 1 kts | 146° |